Sincerity Ace — 3FFD7 — position and weather

sailwx.info

Track history (hours):
 
Tides and Currents Weather Stations Pressure Air Temp Water Temp Dewpoint Dewpoint Depression Visibility Wind Speed Wind Dir Waves Ship Positions

Sincerity Ace

Last reported at 2016-Aug-27 03:33 UTC. Time now 2016-Aug-28 10:26 UTC.
Position N 01°15' E 104°04'.

Length 200 m; draft 9.1 m.

Type: Cargo ship. MMSI: 351690000.

Date/timePositionNaut miles runAvg speedWind from/ knotsBaromVisibWave heightAir tempDewpointWater temp
2016-Aug-27 03:33N 01°15' E 104°04'1111.3
2016-Aug-27 02:34N 01°14' E 103°53'1 1.1
2016-Aug-27 01:26N 01°15' E 103°53'0 0.1
2016-Aug-27 00:32N 01°15' E 103°53'0 0.0
2016-Aug-26 23:32N 01°15' E 103°53'0 0.0
2016-Aug-26 22:32N 01°15' E 103°53'0 0.1
2016-Aug-26 21:32N 01°15' E 103°53'0 0.0
2016-Aug-26 20:26N 01°15' E 103°53'0 0.0
2016-Aug-26 19:26N 01°15' E 103°53'0 0.0
2016-Aug-26 18:17N 01°15' E 103°53'0 0.0
2016-Aug-26 17:31N 01°15' E 103°53'0 0.0
2016-Aug-26 14:26N 01°15' E 103°53'4 4.2
2016-Aug-26 13:33N 01°12' E 103°50'7 2.4
2016-Aug-26 10:31N 01°17' E 103°45'0 0.0
2016-Aug-26 09:31N 01°17' E 103°45'0 0.0
2016-Aug-26 08:31N 01°17' E 103°45'0 0.0
2016-Aug-26 07:19N 01°17' E 103°45'0 0.0
2016-Aug-26 06:31N 01°17' E 103°45'5 2.3
2016-Aug-26 04:33N 01°14' E 103°42'  
Track history (hours):
 
Tides and Currents Weather Stations Pressure Air Temp Water Temp Dewpoint Dewpoint Depression Visibility Wind Speed Wind Dir Waves Ship Positions

Sincerity Ace

Last reported at 2016-Aug-27 03:33 UTC. Time now 2016-Aug-28 10:26 UTC.
Position N 01°15' E 104°04'.

Length 200 m; draft 9.1 m.

Type: Cargo ship. MMSI: 351690000.

Date/timePositionNaut miles runAvg speedWind from/ knotsBaromVisibWave heightAir tempDewpointWater temp
2016-Aug-27 03:33N 01°15' E 104°04'1111.3
2016-Aug-27 02:34N 01°14' E 103°53'1 1.1
2016-Aug-27 01:26N 01°15' E 103°53'0 0.1
2016-Aug-27 00:32N 01°15' E 103°53'0 0.0
2016-Aug-26 23:32N 01°15' E 103°53'0 0.0
2016-Aug-26 22:32N 01°15' E 103°53'0 0.1
2016-Aug-26 21:32N 01°15' E 103°53'0 0.0
2016-Aug-26 20:26N 01°15' E 103°53'0 0.0
2016-Aug-26 19:26N 01°15' E 103°53'0 0.0
2016-Aug-26 18:17N 01°15' E 103°53'0 0.0
2016-Aug-26 17:31N 01°15' E 103°53'0 0.0
2016-Aug-26 14:26N 01°15' E 103°53'4 4.2
2016-Aug-26 13:33N 01°12' E 103°50'7 2.4
2016-Aug-26 10:31N 01°17' E 103°45'0 0.0
2016-Aug-26 09:31N 01°17' E 103°45'0 0.0
2016-Aug-26 08:31N 01°17' E 103°45'0 0.0
2016-Aug-26 07:19N 01°17' E 103°45'0 0.0
2016-Aug-26 06:31N 01°17' E 103°45'5 2.3
2016-Aug-26 04:33N 01°14' E 103°42'  

Dump ship's entire track history